createdAt,value
2019-04-06T00:04:43.392Z,3.38
2019-04-06T00:10:38.346Z,3.15
2019-04-06T00:16:33.413Z,3.63
2019-04-06T00:22:28.342Z,3.18
2019-04-06T00:28:23.322Z,3.47
2019-04-06T00:34:18.329Z,3.27
2019-04-06T00:40:13.333Z,2.97
2019-04-06T00:46:08.332Z,2.74
2019-04-06T00:52:03.339Z,3.05
2019-04-06T00:57:58.358Z,2.77
2019-04-06T01:03:53.334Z,2.74
2019-04-06T01:09:48.341Z,2.82
2019-04-06T01:15:43.399Z,2.5
2019-04-06T01:21:38.372Z,2.79
2019-04-06T01:27:33.357Z,3.73
2019-04-06T01:33:28.349Z,3.36
2019-04-06T01:39:23.357Z,2.53
2019-04-06T01:45:18.359Z,2.51
2019-04-06T01:51:13.400Z,3.37
2019-04-06T01:57:08.367Z,3.33
2019-04-06T02:03:03.389Z,3.31
2019-04-06T02:08:58.375Z,2.8
2019-04-06T02:14:53.413Z,3.15
2019-04-06T02:20:48.395Z,3.32
2019-04-06T02:26:43.425Z,3.46
2019-04-06T02:32:38.387Z,3.95
2019-04-06T02:38:33.409Z,3.31
2019-04-06T02:44:28.401Z,2.97
2019-04-06T02:50:23.390Z,3.12
2019-04-06T02:56:18.395Z,3.07
2019-04-06T03:02:13.418Z,3.13
2019-04-06T03:08:08.418Z,2.81
2019-04-06T03:14:03.414Z,2.91
2019-04-06T03:19:58.409Z,3.28
2019-04-06T03:25:53.432Z,2.97
2019-04-06T03:31:48.439Z,3.23
2019-04-06T03:37:43.442Z,3.6
2019-04-06T03:43:38.419Z,3.69
2019-04-06T03:49:33.453Z,2.98
2019-04-06T03:55:28.434Z,2.86
2019-04-06T04:01:23.496Z,3.33
2019-04-06T04:07:18.432Z,3.08
2019-04-06T04:13:13.443Z,2.93
2019-04-06T04:19:08.448Z,3.4
2019-04-06T04:25:03.452Z,3.15
2019-04-06T04:30:58.561Z,3.09
2019-04-06T04:36:53.486Z,3.27
2019-04-06T04:42:48.467Z,3.9
2019-04-06T04:48:43.466Z,4.03
2019-04-06T04:54:38.520Z,4.6
2019-04-06T05:00:33.491Z,4.03
2019-04-06T05:06:28.472Z,4.1
2019-04-06T05:12:23.534Z,4.31
2019-04-06T05:18:18.472Z,4.32
2019-04-06T05:24:18.689Z,3.73
2019-04-06T05:30:08.525Z,3.66
2019-04-06T05:36:06.417Z,2.95
2019-04-06T05:41:58.496Z,3.37
2019-04-06T05:47:53.631Z,3.78
2019-04-06T05:53:49.185Z,4.24
2019-04-06T05:59:54.200Z,4.7
2019-04-06T06:05:57.046Z,4.87
2019-04-06T06:11:33.511Z,4.87
2019-04-06T06:17:39.967Z,4.79
2019-04-06T06:23:23.511Z,5.48
2019-04-06T06:29:18.500Z,5.82
2019-04-06T06:35:13.536Z,6.72
2019-04-06T06:41:08.636Z,6.69
2019-04-06T06:47:03.530Z,6.65
2019-04-06T06:52:58.537Z,6.92
2019-04-06T06:58:53.559Z,7.31
2019-04-06T07:10:43.593Z,12.92
2019-04-06T07:22:33.664Z,16.52
2019-04-06T07:28:37.411Z,21.68
2019-04-06T07:34:23.596Z,30.6
2019-04-06T07:40:41.880Z,39.76
2019-04-06T07:46:13.584Z,46.98
2019-04-06T07:52:08.565Z,43.16
2019-04-06T07:58:03.589Z,36.18
2019-04-06T08:03:58.611Z,35.97
2019-04-06T08:09:53.601Z,33.48
2019-04-06T08:15:48.699Z,39.82
2019-04-06T08:21:43.613Z,54.17
2019-04-06T08:27:38.798Z,35.86
2019-04-06T08:33:33.625Z,30.08
2019-04-06T08:39:28.665Z,29.98
2019-04-06T08:45:23.626Z,29.54
2019-04-06T08:51:18.596Z,22.46
2019-04-06T08:57:13.591Z,20.44
2019-04-06T09:03:08.619Z,16.51
2019-04-06T09:09:03.623Z,10.87
2019-04-06T09:14:58.643Z,11.26
2019-04-06T09:20:53.633Z,9.11
2019-04-06T09:26:48.859Z,7.61
2019-04-06T09:32:43.855Z,6.47
2019-04-06T09:38:38.711Z,6.29
2019-04-06T09:44:33.676Z,5.53
2019-04-06T09:50:28.825Z,4.87
2019-04-06T09:56:23.643Z,5.58
2019-04-06T10:02:18.697Z,5.81
2019-04-06T10:08:13.684Z,5.02
2019-04-06T10:14:08.686Z,4.87
2019-04-06T10:20:03.679Z,6.18
2019-04-06T10:25:58.795Z,5.11
2019-04-06T10:31:53.671Z,4.78
2019-04-06T10:37:48.699Z,4.85
2019-04-06T10:43:43.698Z,4.27
2019-04-06T10:49:38.740Z,4.24
2019-04-06T10:55:33.840Z,3.71
2019-04-06T11:01:28.957Z,4.57
2019-04-06T11:07:23.714Z,3.91
2019-04-06T11:13:18.702Z,3.36
2019-04-06T11:19:13.738Z,3.27
2019-04-06T11:25:08.705Z,3.03
2019-04-06T11:31:03.718Z,2.76
2019-04-06T11:36:58.809Z,2.71
2019-04-06T11:42:53.740Z,2.7
2019-04-06T11:48:48.724Z,2.69
2019-04-06T11:54:43.729Z,2.34
2019-04-06T12:00:38.756Z,2.28
2019-04-06T12:06:33.739Z,1.9
2019-04-06T12:12:28.749Z,1.93
2019-04-06T12:18:23.969Z,2.06
2019-04-06T12:24:18.751Z,1.63
2019-04-06T12:30:14.146Z,2.17
2019-04-06T12:36:08.801Z,2.08
2019-04-06T12:42:03.776Z,2.36
2019-04-06T12:47:58.793Z,2.77
2019-04-06T12:53:53.825Z,3.54
2019-04-06T12:59:49.069Z,2.21
2019-04-06T13:05:43.821Z,2.15
2019-04-06T13:11:38.876Z,3.21
2019-04-06T13:17:33.845Z,2.17
2019-04-06T13:23:28.806Z,1.99
2019-04-06T13:29:23.879Z,2.22
2019-04-06T13:35:18.825Z,2.57
2019-04-06T13:41:13.891Z,2.43
2019-04-06T13:47:09.000Z,3.59
2019-04-06T13:53:03.824Z,2.45
2019-04-06T13:58:58.851Z,2.4
2019-04-06T14:04:54.200Z,2.36
2019-04-06T14:10:48.865Z,2.68
2019-04-06T14:16:44.137Z,2.01
2019-04-06T14:22:38.836Z,2.5
2019-04-06T14:28:33.947Z,2.17
2019-04-06T14:34:29.327Z,1.74
2019-04-06T14:40:23.853Z,1.86
2019-04-06T14:46:18.901Z,1.85
2019-04-06T14:52:14.065Z,1.92
2019-04-06T14:58:09.143Z,2.23
2019-04-06T15:04:04.203Z,2.4
2019-04-06T15:09:58.930Z,2.1
2019-04-06T15:15:54.281Z,1.95
2019-04-06T15:21:49.165Z,1.96
2019-04-06T15:27:44.070Z,1.83
2019-04-06T15:33:38.984Z,2.08
2019-04-06T15:39:33.922Z,1.99
2019-04-06T15:45:28.927Z,6.32
2019-04-06T15:51:23.908Z,1.89
2019-04-06T15:57:18.925Z,2.8
2019-04-06T16:03:14.071Z,2.04
2019-04-06T16:09:08.939Z,3.16
2019-04-06T16:15:04.262Z,2.34
2019-04-06T16:20:59.148Z,2.24
2019-04-06T16:26:53.931Z,2.6
2019-04-06T16:32:49.003Z,2.29
2019-04-06T16:38:43.954Z,3
2019-04-06T16:44:38.944Z,4.33
2019-04-06T16:50:33.970Z,5.6
2019-04-06T16:56:28.989Z,5.04
2019-04-06T17:02:24.837Z,5.36
2019-04-06T17:08:19.063Z,6.07
2019-04-06T17:14:14.000Z,7.76
2019-04-06T17:20:09.003Z,7.78
2019-04-06T17:26:03.974Z,7.65
2019-04-06T17:31:58.973Z,8.59
2019-04-06T17:37:53.990Z,8.7
2019-04-06T17:43:48.996Z,7.73
2019-04-06T17:49:44.055Z,8.33
2019-04-06T17:55:39.011Z,11.62
2019-04-06T18:01:34.216Z,10.65
2019-04-06T18:07:29.025Z,9.86
2019-04-06T18:13:24.050Z,9.33
2019-04-06T18:19:19.302Z,10.04
2019-04-06T18:25:14.003Z,10.15
2019-04-06T18:31:09.321Z,10.22
2019-04-06T18:37:04.041Z,11.45
2019-04-06T18:42:59.060Z,11.08
2019-04-06T18:48:54.107Z,10.14
2019-04-06T18:54:49.477Z,10.37
2019-04-06T19:00:44.156Z,9.61
2019-04-06T19:06:39.050Z,9.44
2019-04-06T19:12:34.081Z,9.18
2019-04-06T19:18:29.447Z,8.84
2019-04-06T19:24:24.062Z,7.67
2019-04-06T19:30:19.316Z,7.39
2019-04-06T19:36:14.056Z,6.6
2019-04-06T19:42:09.285Z,7.11
2019-04-06T19:48:04.199Z,6.7
2019-04-06T19:53:59.254Z,6.84
2019-04-06T19:59:54.068Z,7.2
2019-04-06T20:05:49.128Z,7.36
2019-04-06T20:11:44.077Z,7.56
2019-04-06T20:17:39.110Z,5.27
2019-04-06T20:23:34.537Z,52.99
2019-04-06T20:29:29.445Z,6.25
2019-04-06T20:35:25.045Z,6.15
2019-04-06T20:41:19.119Z,5.94
2019-04-06T20:47:14.141Z,6.19
2019-04-06T20:53:09.137Z,6.38
2019-04-06T20:59:04.117Z,9.44
2019-04-06T21:04:59.772Z,12.17
2019-04-06T21:10:54.124Z,10.73
2019-04-06T21:16:49.209Z,10.81
2019-04-06T21:22:44.130Z,11.93
2019-04-06T21:28:39.168Z,10.87
2019-04-06T21:34:34.140Z,10.42
2019-04-06T21:40:29.160Z,9.92
2019-04-06T21:46:24.663Z,9.27
2019-04-06T21:52:19.243Z,8.21
2019-04-06T21:58:14.213Z,8.84
2019-04-06T22:04:09.816Z,7.72
2019-04-06T22:10:04.157Z,8.63
2019-04-06T22:15:59.149Z,8.88
2019-04-06T22:21:54.357Z,9.12
2019-04-06T22:27:49.274Z,8.55
2019-04-06T22:33:44.637Z,8.23
2019-04-06T22:39:39.264Z,7.62
2019-04-06T22:45:34.681Z,7.05
2019-04-06T22:51:29.192Z,7.43
2019-04-06T22:57:24.174Z,8.16
2019-04-06T23:03:19.442Z,8.67
2019-04-06T23:09:14.323Z,7.66
2019-04-06T23:15:09.785Z,9.02
2019-04-06T23:21:04.231Z,10.54
2019-04-06T23:26:59.198Z,10.49
2019-04-06T23:32:54.193Z,10.57
2019-04-06T23:38:49.707Z,9.59
2019-04-06T23:44:44.196Z,9.88
2019-04-06T23:50:39.485Z,11.06
2019-04-06T23:56:35.053Z,8.29
